Time;durP1;ratioP1;P1;durP2;ratioP2;P2;SDS_P1;SDS_P2;PMS_P1;PMS_P2;Temp;Humidity;BMP_temperature;BMP_pressure;BME280_temperature;BME280_humidity;BME280_pressure;Samples;Min_cycle;Max_cycle;Signal;HPM_P1;HPM_P2
2022/03/19 00:01:14;;;;;;;12.97;8.13;;;;;;;3.56;80.57;103828.03;5007488;28;20211;-83
2022/03/19 00:03:41;;;;;;;10.97;7.37;;;;;;;3.56;80.18;103831.56;5015570;28;20207;-82
2022/03/19 00:06:08;;;;;;;11.40;7.67;;;;;;;3.54;80.43;103832.41;5011009;28;20219;-82
2022/03/19 00:08:34;;;;;;;12.77;7.50;;;;;;;3.51;80.19;103842.88;5010164;28;20920;-82
2022/03/19 00:11:01;;;;;;;17.20;8.20;;;;;;;3.48;80.54;103833.16;5004778;28;20290;-82
2022/03/19 00:13:28;;;;;;;17.07;8.43;;;;;;;3.45;80.46;103834.00;5010812;28;20206;-82
2022/03/19 00:15:56;;;;;;;13.00;8.77;;;;;;;3.42;81.08;103830.41;5006391;28;20693;-82
2022/03/19 00:18:22;;;;;;;13.63;8.20;;;;;;;3.37;80.75;103833.00;5011638;28;20222;-82
2022/03/19 00:20:49;;;;;;;16.47;8.27;;;;;;;3.36;80.44;103832.97;5004968;28;20666;-82
2022/03/19 00:23:15;;;;;;;14.63;7.47;;;;;;;3.33;80.67;103830.28;4998420;28;20322;-82
2022/03/19 00:25:43;;;;;;;13.50;8.23;;;;;;;3.30;81.13;103828.47;5011672;28;20712;-82
2022/03/19 00:28:09;;;;;;;12.47;7.63;;;;;;;3.28;81.41;103829.31;5004280;28;20238;-83
2022/03/19 00:30:36;;;;;;;13.20;8.40;;;;;;;3.24;80.69;103825.72;5003944;28;20203;-83
2022/03/19 00:33:04;;;;;;;13.30;8.27;;;;;;;3.22;81.52;103826.59;5009381;28;20203;-83
2022/03/19 00:35:32;;;;;;;15.73;8.60;;;;;;;3.20;81.96;103820.41;5009714;28;20209;-83
2022/03/19 00:37:59;;;;;;;11.80;7.40;;;;;;;3.15;81.68;103833.47;5013634;28;20261;-83
2022/03/19 00:40:26;;;;;;;13.60;8.13;;;;;;;3.10;81.84;103829.84;5007720;28;20218;-82
2022/03/19 00:42:52;;;;;;;14.07;7.93;;;;;;;3.05;81.70;103827.13;5012092;28;20219;-83
2022/03/19 00:45:19;;;;;;;12.83;7.57;;;;;;;3.00;81.00;103827.94;5001879;28;20233;-83
2022/03/19 00:47:46;;;;;;;11.43;7.80;;;;;;;2.97;81.78;103828.75;5001146;28;20725;-83
2022/03/19 00:50:14;;;;;;;15.73;8.80;;;;;;;2.93;81.61;103816.38;5013183;28;20574;-83
2022/03/19 00:52:41;;;;;;;15.53;8.63;;;;;;;2.91;81.88;103815.47;5002267;28;20693;-83
2022/03/19 00:55:09;;;;;;;13.80;8.10;;;;;;;2.89;82.32;103816.28;5006862;28;20864;-83
2022/03/19 00:57:41;;;;;;;13.17;7.80;;;;;;;2.87;82.20;103815.38;5010863;28;20306;-81
2022/03/19 01:00:09;;;;;;;13.33;7.17;;;;;;;2.82;81.94;103809.16;5013569;28;20203;-82
2022/03/19 01:02:36;;;;;;;9.43;7.80;;;;;;;2.76;81.26;103815.19;5010098;28;20257;-83
2022/03/19 01:05:02;;;;;;;10.53;8.07;;;;;;;2.69;81.85;103814.16;5010979;28;20355;-83
2022/03/19 01:07:30;;;;;;;11.13;7.90;;;;;;;2.64;81.31;103821.09;5004616;28;20232;-83
2022/03/19 01:09:57;;;;;;;14.43;8.60;;;;;;;2.59;81.52;103822.75;5014157;28;20214;-83
2022/03/19 01:12:23;;;;;;;12.53;8.00;;;;;;;2.57;82.04;103826.19;5008009;28;20210;-82
2022/03/19 01:14:51;;;;;;;11.83;7.57;;;;;;;2.53;82.09;103838.41;5012897;28;20222;-82
2022/03/19 01:17:17;;;;;;;15.93;8.20;;;;;;;2.52;81.94;103831.34;5014243;28;20253;-84
2022/03/19 01:19:58;;;;;;;15.80;9.70;;;;;;;2.49;81.91;103841.84;5003080;28;20215;-83
2022/03/19 01:22:25;;;;;;;15.70;9.17;;;;;;;2.44;81.53;103833.84;5006769;28;20313;-82
2022/03/19 01:24:53;;;;;;;16.77;8.70;;;;;;;2.42;82.14;103837.28;5008277;28;20207;-83
2022/03/19 01:27:20;;;;;;;13.70;8.33;;;;;;;2.40;81.56;103833.75;5011261;28;20253;-83
2022/03/19 01:29:46;;;;;;;15.77;8.73;;;;;;;2.37;82.00;103833.66;5002176;28;20214;-83
2022/03/19 01:32:13;;;;;;;14.40;8.80;;;;;;;2.34;82.01;103828.34;5022013;28;20212;-83
2022/03/19 01:34:39;;;;;;;13.43;8.33;;;;;;;2.32;82.07;103828.34;5014537;28;20241;-83
2022/03/19 01:37:07;;;;;;;15.27;8.60;;;;;;;2.29;82.09;103836.16;5005852;28;20599;-82
2022/03/19 01:39:33;;;;;;;14.87;8.20;;;;;;;2.28;82.56;103834.38;5002358;28;20207;-83
2022/03/19 01:42:01;;;;;;;13.17;8.20;;;;;;;2.26;82.43;103835.19;5002816;28;20225;-82
2022/03/19 01:44:28;;;;;;;14.87;8.13;;;;;;;2.24;82.42;103834.25;5000134;28;20217;-82
2022/03/19 01:46:57;;;;;;;11.27;7.17;;;;;;;2.19;82.77;103836.78;4999645;28;20228;-82
2022/03/19 01:49:24;;;;;;;12.60;7.47;;;;;;;2.14;82.29;103835.81;5004442;28;20203;-82
2022/03/19 01:51:52;;;;;;;12.27;7.50;;;;;;;2.08;82.79;103831.31;4997033;28;20208;-82
2022/03/19 01:54:24;;;;;;;14.20;8.13;;;;;;;2.04;82.66;103828.56;4995189;28;20237;-82
2022/03/19 01:56:51;;;;;;;23.63;8.50;;;;;;;2.03;83.44;103824.16;4999968;28;20231;-82
2022/03/19 01:59:21;;;;;;;13.27;7.60;;;;;;;2.05;83.70;103822.44;5009904;28;20200;-82
2022/03/19 02:01:49;;;;;;;14.63;7.40;;;;;;;2.08;83.80;103822.53;4998039;28;20310;-81
2022/03/19 02:04:15;;;;;;;22.70;7.83;;;;;;;2.10;84.29;103828.72;5012161;28;20199;-82
2022/03/19 02:06:45;;;;;;;11.50;7.47;;;;;;;2.12;83.94;103828.75;5013944;28;20235;-83
2022/03/19 02:09:11;;;;;;;15.20;7.93;;;;;;;2.14;84.48;103824.41;5001262;28;20234;-83
2022/03/19 02:11:38;;;;;;;14.07;8.10;;;;;;;2.15;84.89;103820.94;5013000;28;20207;-83
2022/03/19 02:14:05;;;;;;;15.90;8.20;;;;;;;2.14;84.67;103824.41;5013892;28;20236;-82
2022/03/19 02:16:33;;;;;;;15.20;7.73;;;;;;;2.12;84.75;103811.22;5005402;28;20270;-83
2022/03/19 02:19:00;;;;;;;13.17;8.23;;;;;;;2.11;84.84;103813.81;5009574;28;20207;-82
2022/03/19 02:21:27;;;;;;;14.00;7.80;;;;;;;2.09;84.95;103812.06;5006933;28;20595;-83
2022/03/19 02:26:44;;;;;;;12.90;7.57;;;;;;;2.06;85.53;103811.97;5030085;28;20218;-83
2022/03/19 02:29:10;;;;;;;13.83;7.33;;;;;;;2.06;85.20;103811.09;5023060;28;20217;-83
2022/03/19 02:31:39;;;;;;;9.53;6.77;;;;;;;2.01;84.93;103803.09;5016053;28;20203;-83
2022/03/19 02:34:08;;;;;;;14.77;8.10;;;;;;;1.97;85.33;103811.75;5012443;28;20203;-82
2022/03/19 02:36:35;;;;;;;11.47;6.63;;;;;;;1.94;85.71;103803.81;5010209;28;20227;-82
2022/03/19 02:39:09;;;;;;;21.63;7.93;;;;;;;1.91;85.69;103805.50;5018110;28;20653;-83
2022/03/19 02:41:36;;;;;;;15.63;8.37;;;;;;;1.88;85.38;103800.16;5002676;28;20214;-83
2022/03/19 02:44:03;;;;;;;13.77;7.87;;;;;;;1.88;85.38;103798.41;5001255;28;20214;-83
2022/03/19 02:46:40;;;;;;;18.07;9.10;;;;;;;1.89;85.58;103801.94;5002279;28;20227;-82
2022/03/19 02:49:07;;;;;;;20.23;8.13;;;;;;;1.88;85.99;103801.03;5013706;28;20210;-83
2022/03/19 02:51:35;;;;;;;16.50;8.23;;;;;;;1.89;86.09;103797.56;5015566;28;20231;-83
2022/03/19 02:54:04;;;;;;;14.60;6.83;;;;;;;1.81;85.28;103804.38;5014753;28;20202;-82
2022/03/19 02:56:33;;;;;;;12.80;7.10;;;;;;;1.71;84.76;103811.16;5003932;28;20215;-82
2022/03/19 02:59:06;;;;;;;11.97;7.00;;;;;;;1.62;84.61;103807.41;5011184;28;20212;-83
2022/03/19 03:01:33;;;;;;;14.10;7.70;;;;;;;1.54;84.91;103809.00;5016006;28;20229;-83
2022/03/19 03:04:00;;;;;;;13.70;7.37;;;;;;;1.45;84.56;103808.75;5012479;28;20199;-83
2022/03/19 03:06:27;;;;;;;12.47;7.47;;;;;;;1.37;85.02;103811.19;5004560;28;20241;-82
2022/03/19 03:08:54;;;;;;;14.33;8.30;;;;;;;1.33;84.80;103809.34;5013537;28;20632;-83
2022/03/19 03:11:21;;;;;;;12.20;7.57;;;;;;;1.29;85.15;103802.22;5012066;28;20203;-82
2022/03/19 03:13:49;;;;;;;12.33;8.20;;;;;;;1.27;84.98;103812.69;5011733;28;20210;-82
2022/03/19 03:16:15;;;;;;;14.37;7.13;;;;;;;1.27;85.17;103817.94;5008534;28;20322;-81
2022/03/19 03:18:42;;;;;;;19.27;8.40;;;;;;;1.25;85.66;103806.53;5007545;28;20239;-82
2022/03/19 03:21:08;;;;;;;17.33;8.73;;;;;;;1.26;85.50;103813.53;5016367;28;20199;-82
2022/03/19 03:23:35;;;;;;;13.80;7.53;;;;;;;1.27;85.41;103804.81;5016054;28;20203;-83
2022/03/19 03:26:02;;;;;;;15.20;8.90;;;;;;;1.27;85.62;103804.81;5015462;28;20215;-83
2022/03/19 03:28:28;;;;;;;18.37;8.43;;;;;;;1.30;86.28;103798.75;5012393;28;20226;-82
2022/03/19 03:30:56;;;;;;;18.30;9.60;;;;;;;1.35;86.23;103807.66;5012765;28;20214;-82
2022/03/19 03:33:23;;;;;;;21.00;8.83;;;;;;;1.41;86.70;103804.28;5011026;28;20208;-82
2022/03/19 03:35:50;;;;;;;20.03;9.47;;;;;;;1.44;86.93;103805.22;5013789;28;20261;-82
2022/03/19 03:38:16;;;;;;;16.07;8.23;;;;;;;1.45;87.24;103804.38;5008008;28;20226;-83
2022/03/19 03:40:45;;;;;;;17.23;8.93;;;;;;;1.46;87.53;103808.78;5015303;28;20211;-81
2022/03/19 03:43:12;;;;;;;16.33;8.73;;;;;;;1.47;87.05;103807.06;5004966;28;20206;-82
2022/03/19 03:45:39;;;;;;;19.97;10.33;;;;;;;1.46;87.28;103806.16;5009512;28;20652;-83
2022/03/19 03:48:06;;;;;;;19.17;9.67;;;;;;;1.45;87.52;103795.63;5013485;28;20262;-82
2022/03/19 03:50:35;;;;;;;18.93;8.87;;;;;;;1.44;87.65;103799.09;5013142;28;20210;-83
2022/03/19 03:53:03;;;;;;;27.30;10.80;;;;;;;1.44;87.46;103809.59;5015145;28;20214;-83
2022/03/19 03:55:29;;;;;;;19.00;9.87;;;;;;;1.45;87.79;103800.88;5000611;28;20207;-83
2022/03/19 03:57:56;;;;;;;24.77;10.00;;;;;;;1.44;87.60;103799.97;4995311;28;20603;-82
2022/03/19 04:00:23;;;;;;;20.73;9.90;;;;;;;1.44;88.13;103801.72;5002215;28;20206;-81
2022/03/19 04:02:50;;;;;;;28.87;11.77;;;;;;;1.43;87.95;103798.22;4999746;28;20207;-81
2022/03/19 04:05:19;;;;;;;28.60;9.90;;;;;;;1.45;88.00;103798.25;5005473;28;20211;-82
2022/03/19 04:07:46;;;;;;;24.63;11.23;;;;;;;1.48;88.61;103799.22;4996772;28;20236;-81
2022/03/19 04:10:13;;;;;;;27.80;11.20;;;;;;;1.48;88.53;103790.44;5006833;28;20207;-82
2022/03/19 04:12:40;;;;;;;19.10;10.17;;;;;;;1.49;88.44;103793.09;5009767;28;20317;-83
2022/03/19 04:15:07;;;;;;;22.30;9.63;;;;;;;1.48;89.10;103795.69;5008918;28;20598;-82
2022/03/19 04:17:34;;;;;;;21.27;10.67;;;;;;;1.48;89.27;103793.06;4995890;28;20223;-82
2022/03/19 04:20:00;;;;;;;20.00;10.03;;;;;;;1.46;89.22;103795.66;5014364;28;20207;-82
2022/03/19 04:22:35;;;;;;;17.87;10.63;;;;;;;1.45;88.76;103795.63;5008282;28;20206;-82
2022/03/19 04:25:01;;;;;;;21.40;10.77;;;;;;;1.43;89.25;103807.84;5002815;28;20758;-81
2022/03/19 04:27:28;;;;;;;23.37;10.73;;;;;;;1.39;89.34;103802.53;5002961;28;20245;-82
2022/03/19 04:29:56;;;;;;;24.40;11.07;;;;;;;1.39;89.55;103806.88;5002240;28;20203;-82
2022/03/19 04:32:22;;;;;;;23.67;10.27;;;;;;;1.37;89.43;103804.22;5001944;28;20709;-83
2022/03/19 04:34:49;;;;;;;23.33;10.10;;;;;;;1.34;89.45;103798.88;5010419;28;20217;-82
2022/03/19 04:37:15;;;;;;;18.93;11.07;;;;;;;1.32;89.60;103794.44;5006052;28;20739;-83
2022/03/19 04:39:43;;;;;;;22.53;10.03;;;;;;;1.28;89.02;103793.47;5007625;28;20219;-82
2022/03/19 04:42:10;;;;;;;21.87;9.93;;;;;;;1.25;89.39;103790.78;4995996;28;20215;-82
2022/03/19 04:47:11;;;;;;;18.20;10.23;;;;;;;1.21;89.36;103794.19;4995840;28;20253;-68
2022/03/19 04:49:38;;;;;;;24.47;10.03;;;;;;;1.18;89.49;103801.97;5008105;28;20231;-68
2022/03/19 04:52:05;;;;;;;20.57;10.50;;;;;;;1.15;89.40;103794.00;5008518;28;20211;-68
2022/03/19 04:54:31;;;;;;;20.23;9.33;;;;;;;1.12;89.02;103793.94;5007806;28;20242;-68
2022/03/19 04:56:59;;;;;;;22.90;9.53;;;;;;;1.09;89.67;103801.72;5008324;28;20250;-68
2022/03/19 04:59:26;;;;;;;16.00;9.97;;;;;;;1.07;89.16;103803.44;5048440;22;20249;-86
2022/03/19 05:01:52;;;;;;;21.57;9.63;;;;;;;1.02;89.52;103797.16;5044954;28;20201;-86
2022/03/19 05:04:19;;;;;;;25.37;9.60;;;;;;;0.99;89.69;103802.34;5054184;28;20198;-86
2022/03/19 05:06:45;;;;;;;17.57;9.77;;;;;;;0.97;89.19;103804.03;5053273;28;20233;-86
2022/03/19 05:11:56;;;;;;;18.27;9.87;;;;;;;0.89;89.06;103793.34;5044908;28;20247;-85
2022/03/19 05:14:24;;;;;;;25.23;9.37;;;;;;;0.84;88.84;103807.19;5050051;28;20213;-85
2022/03/19 05:16:51;;;;;;;16.77;9.73;;;;;;;0.77;88.69;103808.72;5032556;28;20230;-86
2022/03/19 05:19:17;;;;;;;22.27;9.07;;;;;;;0.72;88.42;103804.22;5039305;28;20457;-86
2022/03/19 05:21:44;;;;;;;14.60;8.17;;;;;;;0.65;88.40;103801.44;5041020;28;20222;-86
2022/03/19 05:24:10;;;;;;;14.43;8.50;;;;;;;0.61;88.75;103803.91;5034624;28;20214;-86
2022/03/19 05:26:37;;;;;;;20.73;8.60;;;;;;;0.58;88.63;103806.44;5045330;28;20229;-86
2022/03/19 05:29:04;;;;;;;20.10;8.67;;;;;;;0.54;88.44;103810.72;5041858;28;20202;-86
2022/03/19 05:31:32;;;;;;;16.47;8.60;;;;;;;0.50;88.49;103801.00;5045525;28;20591;-86
2022/03/19 05:36:43;;;;;;;17.60;9.27;;;;;;;0.46;88.54;103799.13;5043504;28;20307;-86
2022/03/19 05:39:09;;;;;;;20.67;9.53;;;;;;;0.45;88.75;103805.22;5036314;28;20209;-87
2022/03/19 05:41:36;;;;;;;17.13;9.90;;;;;;;0.42;88.56;103802.50;5049258;28;20197;-86
2022/03/19 05:44:03;;;;;;;21.70;11.37;;;;;;;0.38;88.44;103804.97;5049378;28;20214;-86
2022/03/19 05:46:29;;;;;;;16.60;9.43;;;;;;;0.31;88.06;103801.31;5048454;28;20232;-86
2022/03/19 05:48:57;;;;;;;8.93;5.80;;;;;;;0.26;88.22;103802.91;5045344;28;20202;-86
2022/03/19 05:51:24;;;;;;;10.27;6.20;;;;;;;0.24;87.97;103804.59;5047206;28;20198;-86
2022/03/19 05:53:50;;;;;;;14.10;7.07;;;;;;;0.19;88.28;103804.44;5046652;28;20205;-86
2022/03/19 05:56:17;;;;;;;12.83;7.00;;;;;;;0.20;88.09;103815.81;5038765;28;20228;-86
2022/03/19 05:58:44;;;;;;;15.03;7.90;;;;;;;0.17;88.23;103803.53;5049695;28;20247;-86
2022/03/19 06:01:11;;;;;;;14.60;8.67;;;;;;;0.19;88.25;103800.94;5052660;28;20201;-86
2022/03/19 06:03:37;;;;;;;14.67;9.23;;;;;;;0.19;88.16;103793.97;5042489;28;20699;-86
2022/03/19 06:06:05;;;;;;;16.27;8.63;;;;;;;0.21;88.52;103797.50;5053042;28;20625;-86
2022/03/19 06:08:32;;;;;;;17.33;8.40;;;;;;;0.23;88.80;103806.31;5044906;28;20682;-86
2022/03/19 06:10:59;;;;;;;9.73;6.23;;;;;;;0.24;88.45;103807.22;5049919;28;20209;-85
2022/03/19 06:13:26;;;;;;;10.63;6.60;;;;;;;0.24;88.61;103797.63;5047914;28;20440;-87
2022/03/19 06:15:52;;;;;;;9.67;6.57;;;;;;;0.24;88.57;103799.34;5047969;28;20233;-86
2022/03/19 06:18:19;;;;;;;11.40;7.93;;;;;;;0.23;88.32;103801.06;5047017;28;20222;-86
2022/03/19 06:20:46;;;;;;;11.37;7.50;;;;;;;0.24;88.69;103792.38;5042236;28;20206;-86
2022/03/19 06:23:14;;;;;;;11.43;7.70;;;;;;;0.24;88.60;103791.47;5040000;28;20212;-86
2022/03/19 06:25:40;;;;;;;12.40;8.20;;;;;;;0.24;88.84;103783.63;5045715;28;20230;-86
2022/03/19 06:28:07;;;;;;;16.97;8.97;;;;;;;0.24;89.04;103788.84;5049472;28;20776;-86
2022/03/19 06:30:37;;;;;;;14.63;8.80;;;;;;;0.26;88.90;103789.78;5045599;28;20666;-86
2022/03/19 06:33:11;;;;;;;15.93;8.17;;;;;;;0.26;88.92;103787.19;5047576;28;20253;-86
2022/03/19 06:38:27;;;;;;;19.40;9.37;;;;;;;0.29;89.02;103784.66;5053380;28;20225;-83
2022/03/19 06:40:53;;;;;;;22.90;10.30;;;;;;;0.29;89.47;103777.66;5050812;28;20555;-81
2022/03/19 06:43:20;;;;;;;18.37;10.07;;;;;;;0.34;89.47;103777.81;5050963;28;20284;-82
2022/03/19 06:45:47;;;;;;;19.00;10.27;;;;;;;0.39;89.46;103781.44;5045020;28;20316;-81
2022/03/19 06:48:13;;;;;;;21.73;11.37;;;;;;;0.44;89.81;103784.19;5043226;28;20232;-81
2022/03/19 06:50:40;;;;;;;26.17;11.23;;;;;;;0.50;90.26;103777.41;5048548;28;20198;-80
2022/03/19 06:53:07;;;;;;;22.93;11.57;;;;;;;0.58;90.47;103785.47;5046458;28;20218;-80
2022/03/19 06:55:35;;;;;;;26.83;11.00;;;;;;;0.65;91.02;103779.56;5046343;28;20229;-82
2022/03/19 06:58:01;;;;;;;26.03;11.37;;;;;;;0.74;90.95;103789.41;5046057;28;20865;-82
2022/03/19 07:00:28;;;;;;;24.03;11.33;;;;;;;0.80;91.51;103779.97;5044884;28;20226;-82
2022/03/19 07:02:56;;;;;;;22.33;11.53;;;;;;;0.87;91.96;103783.66;5050412;28;20214;-81
2022/03/19 07:05:24;;;;;;;25.03;11.70;;;;;;;0.93;91.85;103775.91;5048867;28;20232;-80
2022/03/19 07:07:51;;;;;;;29.87;12.57;;;;;;;0.98;92.16;103774.31;5052966;28;20236;-83
2022/03/19 07:10:19;;;;;;;23.13;11.87;;;;;;;1.04;92.28;103780.63;5058522;28;20218;-83
2022/03/19 07:12:47;;;;;;;37.80;13.10;;;;;;;1.08;92.70;103776.31;5057785;28;20675;-81
2022/03/19 07:15:14;;;;;;;28.77;11.67;;;;;;;1.14;92.95;103771.22;5037365;28;20218;-83
2022/03/19 07:17:40;;;;;;;35.17;12.43;;;;;;;1.20;93.39;103779.28;5044558;28;20820;-82
2022/03/19 07:20:08;;;;;;;25.47;10.73;;;;;;;1.26;93.34;103786.41;5057510;28;20199;-81
2022/03/19 07:22:49;;;;;;;27.80;11.73;;;;;;;1.33;93.58;103793.59;5052137;28;20289;-80
2022/03/19 07:25:15;;;;;;;24.90;11.87;;;;;;;1.38;93.93;103797.22;5053131;28;20232;-82
2022/03/19 07:27:42;;;;;;;29.93;10.90;;;;;;;1.43;93.37;103777.22;5047502;28;20378;-83
2022/03/19 07:30:12;;;;;;;24.40;11.53;;;;;;;1.49;94.38;103784.34;5044889;28;20619;-81
2022/03/19 07:32:39;;;;;;;26.73;11.93;;;;;;;1.56;93.82;103786.28;5043037;28;20206;-81
2022/03/19 07:35:06;;;;;;;17.20;10.80;;;;;;;1.62;94.45;103783.78;5054809;28;20225;-82
2022/03/19 07:37:33;;;;;;;22.13;11.13;;;;;;;1.70;94.35;103787.47;5047048;28;20255;-81
2022/03/19 07:40:01;;;;;;;31.40;11.90;;;;;;;1.78;94.55;103780.69;5047564;28;20202;-81
2022/03/19 07:42:26;;;;;;;27.07;11.27;;;;;;;1.89;94.68;103781.78;5050594;28;20202;-81
2022/03/19 07:44:53;;;;;;;25.87;10.60;;;;;;;2.00;94.94;103777.66;5041276;28;20220;-81
2022/03/19 07:47:21;;;;;;;28.37;11.47;;;;;;;2.14;95.61;103777.09;5043936;28;20680;-80
2022/03/19 07:49:48;;;;;;;23.00;10.40;;;;;;;2.29;96.48;103772.16;5041916;28;20209;-80
2022/03/19 07:52:15;;;;;;;18.60;9.23;;;;;;;2.44;96.17;103778.59;5050044;28;20212;-80
2022/03/19 07:54:41;;;;;;;20.47;8.57;;;;;;;2.59;96.16;103767.50;5051298;28;20228;-81
2022/03/19 07:57:10;;;;;;;21.93;8.67;;;;;;;2.74;96.65;103773.03;5043512;28;20216;-80
2022/03/19 07:59:37;;;;;;;21.57;8.53;;;;;;;2.90;96.97;103774.19;5047620;28;20328;-81
2022/03/19 08:02:07;;;;;;;20.07;8.63;;;;;;;3.05;97.33;103771.84;5046137;28;20198;-81
2022/03/19 08:04:35;;;;;;;19.37;7.97;;;;;;;3.24;96.89;103769.53;5042651;28;20209;-81
2022/03/19 08:07:02;;;;;;;15.63;8.27;;;;;;;3.40;96.59;103759.25;5043494;28;20228;-82
2022/03/19 08:09:28;;;;;;;18.00;8.33;;;;;;;3.56;96.82;103756.88;5048717;28;20232;-81
2022/03/19 08:11:56;;;;;;;17.60;7.40;;;;;;;3.70;96.37;103760.59;5043887;28;20198;-81
2022/03/19 08:14:22;;;;;;;18.47;7.67;;;;;;;3.83;95.55;103755.53;5043666;28;20204;-81
2022/03/19 08:16:49;;;;;;;14.17;7.07;;;;;;;3.96;95.53;103758.31;5045212;28;20893;-81
2022/03/19 08:19:19;;;;;;;25.70;9.30;;;;;;;4.07;94.57;103752.34;5040607;28;20652;-81
2022/03/19 08:21:50;;;;;;;20.60;7.33;;;;;;;4.24;94.41;103749.03;5040980;28;20201;-80
2022/03/19 08:24:16;;;;;;;12.33;6.20;;;;;;;4.41;93.84;103743.09;5041538;28;20272;-80
2022/03/19 08:26:46;;;;;;;9.90;6.90;;;;;;;4.59;93.42;103754.72;5041888;28;20699;-81
2022/03/19 08:29:13;;;;;;;14.17;7.30;;;;;;;4.75;92.77;103751.38;5043295;28;20296;-81
2022/03/19 08:31:40;;;;;;;13.37;6.77;;;;;;;4.92;91.86;103744.50;5043032;28;20201;-81
2022/03/19 08:34:07;;;;;;;17.10;7.30;;;;;;;5.10;91.17;103756.97;5042042;28;20255;-81
2022/03/19 08:36:34;;;;;;;14.43;5.87;;;;;;;5.26;90.12;103752.72;5043574;28;20721;-82
2022/03/19 08:41:47;;;;;;;14.47;6.67;;;;;;;5.54;87.25;103752.94;5038792;28;20200;-81
2022/03/19 08:44:13;;;;;;;14.90;6.03;;;;;;;5.69;86.29;103761.84;5034558;28;20236;-81
2022/03/19 08:46:40;;;;;;;13.00;5.50;;;;;;;5.82;84.78;103764.56;5032676;28;20222;-82
2022/03/19 08:49:09;;;;;;;11.83;5.77;;;;;;;5.92;82.91;103757.59;5036515;28;20699;-81
2022/03/19 08:51:41;;;;;;;18.17;6.67;;;;;;;6.03;82.44;103757.66;5036899;28;20212;-80
2022/03/19 08:54:10;;;;;;;11.60;5.17;;;;;;;6.05;81.03;103756.81;5037102;28;20220;-81
2022/03/19 08:56:37;;;;;;;12.23;5.33;;;;;;;6.07;79.95;103757.72;5038768;28;20321;-81
2022/03/19 08:59:04;;;;;;;11.83;5.70;;;;;;;6.13;79.98;103752.41;5038180;28;20210;-82
2022/03/19 09:01:31;;;;;;;15.50;5.57;;;;;;;6.27;79.20;103748.06;5042335;28;20296;-81
2022/03/19 09:03:58;;;;;;;11.40;3.97;;;;;;;6.40;78.95;103764.00;5041974;28;20229;-81
2022/03/19 09:06:24;;;;;;;7.93;4.10;;;;;;;6.47;77.93;103755.19;5044395;28;20705;-81
2022/03/19 09:08:51;;;;;;;10.90;3.93;;;;;;;6.58;76.68;103745.53;5038526;28;20221;-82
2022/03/19 09:11:21;;;;;;;8.30;4.20;;;;;;;6.68;76.61;103746.44;5037708;28;20202;-82
2022/03/19 09:13:49;;;;;;;11.40;4.53;;;;;;;6.81;75.68;103741.16;5043115;28;20672;-81
2022/03/19 09:16:16;;;;;;;7.90;3.87;;;;;;;6.91;74.46;103740.28;5038107;28;20687;-81
2022/03/19 09:18:43;;;;;;;10.10;4.30;;;;;;;7.03;73.92;103735.88;5037530;28;20203;-81
2022/03/19 09:21:10;;;;;;;11.23;3.70;;;;;;;7.14;73.41;103726.19;5036232;28;20833;-81
2022/03/19 09:23:37;;;;;;;7.67;3.47;;;;;;;7.24;72.55;103718.22;5041868;28;20214;-81
2022/03/19 09:26:03;;;;;;;9.67;3.63;;;;;;;7.38;71.61;103720.84;5043586;28;20225;-81
2022/03/19 09:28:31;;;;;;;13.17;3.90;;;;;;;7.50;72.35;103710.25;5042283;28;20230;-81
2022/03/19 09:30:58;;;;;;;8.33;3.50;;;;;;;7.62;71.35;103707.56;5044775;28;20231;-81
2022/03/19 09:33:25;;;;;;;6.37;2.47;;;;;;;7.68;70.60;103708.44;5038821;28;20225;-81
2022/03/19 09:35:51;;;;;;;6.83;2.90;;;;;;;7.72;70.04;103710.16;5040915;28;20661;-81
2022/03/19 09:38:18;;;;;;;7.43;3.10;;;;;;;7.81;69.42;103710.16;5045332;28;20271;-81
2022/03/19 09:40:45;;;;;;;6.67;2.70;;;;;;;7.89;68.84;103697.72;5042846;28;20238;-81
2022/03/19 09:43:12;;;;;;;8.60;3.10;;;;;;;7.95;67.49;103705.66;5043111;28;20202;-81
2022/03/19 09:45:40;;;;;;;5.40;2.40;;;;;;;8.00;66.89;103704.78;5050540;28;20225;-82
2022/03/19 09:48:06;;;;;;;6.83;2.60;;;;;;;8.02;66.67;103705.66;5044266;28;20232;-81
2022/03/19 09:50:34;;;;;;;11.63;2.97;;;;;;;8.10;65.83;103686.13;5039745;28;20233;-81
2022/03/19 09:53:04;;;;;;;10.83;3.10;;;;;;;8.17;65.20;103687.88;5047263;28;20193;-81
2022/03/19 09:55:33;;;;;;;8.20;2.70;;;;;;;8.26;64.97;103694.00;5051148;28;20726;-82
2022/03/19 09:58:00;;;;;;;9.17;3.40;;;;;;;8.36;65.33;103681.63;5048814;28;20213;-81
2022/03/19 10:00:27;;;;;;;6.30;2.43;;;;;;;8.45;64.51;103678.00;5044052;28;20269;-82
2022/03/19 10:02:59;;;;;;;8.53;2.57;;;;;;;8.52;63.51;103671.78;5042360;28;20205;-83
2022/03/19 10:10:59;;;;;;;5.27;2.27;;;;;;;8.59;61.19;103669.09;5043367;28;20267;-81
2022/03/19 10:13:26;;;;;;;7.10;2.47;;;;;;;8.63;61.16;103661.94;5040419;28;20650;-81
2022/03/19 10:15:53;;;;;;;7.17;2.83;;;;;;;8.68;61.61;103653.06;5042912;28;20229;-81
2022/03/19 10:18:26;;;;;;;6.77;2.90;;;;;;;8.74;61.22;103649.47;5043333;28;20206;-81
2022/03/19 10:20:54;;;;;;;7.13;2.43;;;;;;;8.83;61.59;103649.41;5045624;28;20304;-81
2022/03/19 10:23:31;;;;;;;8.27;2.20;;;;;;;8.89;61.03;103651.13;5041969;28;20679;-81
2022/03/19 10:25:57;;;;;;;5.67;2.07;;;;;;;8.96;61.39;103648.38;5044114;28;20335;-81
2022/03/19 10:28:29;;;;;;;5.10;2.17;;;;;;;9.02;60.63;103637.72;5043592;28;20725;-82
2022/03/19 10:30:56;;;;;;;7.70;2.10;;;;;;;9.07;59.61;103634.13;5044220;28;20591;-81
2022/03/19 10:33:27;;;;;;;5.07;1.90;;;;;;;9.14;59.51;103638.47;5045051;28;20216;-82
2022/03/19 10:36:07;;;;;;;5.40;2.00;;;;;;;9.22;59.33;103628.66;5046172;28;20222;-81
2022/03/19 10:38:42;;;;;;;5.37;2.20;;;;;;;9.29;58.95;103633.91;5045074;28;20212;-81
2022/03/19 10:41:09;;;;;;;9.67;2.47;;;;;;;9.32;59.20;103630.31;5039631;28;20201;-81
2022/03/19 10:43:36;;;;;;;4.30;2.00;;;;;;;9.37;58.60;103625.81;5044247;28;20206;-81
2022/03/19 10:46:04;;;;;;;7.37;2.87;;;;;;;9.44;58.42;103624.88;5042223;28;20779;-82
2022/03/19 10:48:32;;;;;;;9.40;2.63;;;;;;;9.50;57.57;103622.13;5041823;28;20852;-81
2022/03/19 10:50:59;;;;;;;8.87;1.93;;;;;;;9.59;57.69;103607.84;5039274;28;20210;-81
2022/03/19 10:53:26;;;;;;;6.10;1.90;;;;;;;9.68;57.50;103608.59;5042964;28;20702;-82
2022/03/19 10:55:53;;;;;;;5.90;2.00;;;;;;;9.77;57.01;103614.72;5042570;28;20225;-81
2022/03/19 10:58:20;;;;;;;5.60;2.13;;;;;;;9.78;55.95;103597.84;5040214;28;20221;-81
2022/03/19 11:00:48;;;;;;;7.00;2.07;;;;;;;9.83;56.27;103593.34;5041900;28;20198;-82
2022/03/19 11:03:20;;;;;;;6.77;1.70;;;;;;;9.85;55.07;103586.22;5039236;28;20233;-82
2022/03/19 11:05:49;;;;;;;7.93;2.17;;;;;;;9.88;54.72;103591.47;5043963;28;20224;-82
2022/03/19 11:08:20;;;;;;;7.10;1.80;;;;;;;9.91;54.19;103578.13;5043392;28;20671;-82
2022/03/19 11:10:50;;;;;;;3.73;1.43;;;;;;;9.95;53.63;103578.09;5043311;28;20197;-82
2022/03/19 11:13:21;;;;;;;6.60;2.37;;;;;;;10.00;53.74;103565.59;5047828;28;20207;-82
2022/03/19 11:15:54;;;;;;;5.57;1.80;;;;;;;10.08;53.11;103562.78;5050514;28;20289;-82
2022/03/19 11:18:21;;;;;;;4.23;1.33;;;;;;;10.15;53.04;103561.81;5046450;28;20212;-82
2022/03/19 11:20:53;;;;;;;6.10;1.80;;;;;;;10.22;52.93;103550.19;5056633;28;20740;-81
2022/03/19 11:23:42;;;;;;;4.70;1.30;;;;;;;10.33;53.02;103542.91;5044627;28;20218;-82
2022/03/19 11:26:14;;;;;;;3.93;1.50;;;;;;;10.39;52.33;103537.47;5047310;28;20227;-82
2022/03/19 11:28:41;;;;;;;5.07;1.60;;;;;;;10.49;52.30;103538.19;5043965;28;20530;-81
2022/03/19 11:31:08;;;;;;;6.90;1.77;;;;;;;10.55;51.55;103522.13;5050523;28;20215;-82
2022/03/19 11:33:37;;;;;;;3.40;1.40;;;;;;;10.57;51.19;103525.59;5043877;28;20324;-81
2022/03/19 11:36:09;;;;;;;6.73;1.43;;;;;;;10.59;50.55;103521.13;5043331;28;20229;-81
2022/03/19 11:38:41;;;;;;;7.20;1.57;;;;;;;10.59;50.50;103507.81;5041868;28;20217;-81
2022/03/19 11:41:23;;;;;;;3.80;1.30;;;;;;;10.62;50.06;103501.53;5046239;28;20690;-82
2022/03/19 11:43:50;;;;;;;4.47;1.40;;;;;;;10.60;49.73;103484.69;5045067;28;20579;-82
2022/03/19 11:46:17;;;;;;;3.03;1.27;;;;;;;10.58;49.17;103494.50;5043553;28;20600;-81
2022/03/19 11:48:47;;;;;;;3.67;1.07;;;;;;;10.59;48.46;103490.94;5046331;28;20234;-82